sensor_id;sensor_type;location;lat;lon;timestamp;P1;durP1;ratioP1;P2;durP2;ratioP2
31728;SDS011;18309;43.658;1.312;2023-07-09T00:01:47;8.80;;;3.40;;
31728;SDS011;18309;43.658;1.312;2023-07-09T00:04:13;13.77;;;4.03;;
31728;SDS011;18309;43.658;1.312;2023-07-09T00:06:39;9.10;;;3.30;;
31728;SDS011;18309;43.658;1.312;2023-07-09T00:09:06;11.25;;;3.97;;
31728;SDS011;18309;43.658;1.312;2023-07-09T00:11:39;10.13;;;3.28;;
31728;SDS011;18309;43.658;1.312;2023-07-09T00:14:06;10.98;;;3.50;;
31728;SDS011;18309;43.658;1.312;2023-07-09T00:16:32;9.10;;;3.20;;
31728;SDS011;18309;43.658;1.312;2023-07-09T00:18:58;9.40;;;3.80;;
31728;SDS011;18309;43.658;1.312;2023-07-09T00:21:24;9.82;;;3.88;;
31728;SDS011;18309;43.658;1.312;2023-07-09T00:23:50;14.07;;;3.72;;
31728;SDS011;18309;43.658;1.312;2023-07-09T00:26:16;11.60;;;4.00;;
31728;SDS011;18309;43.658;1.312;2023-07-09T00:28:45;12.65;;;3.85;;
31728;SDS011;18309;43.658;1.312;2023-07-09T00:31:12;11.32;;;3.75;;
31728;SDS011;18309;43.658;1.312;2023-07-09T00:33:40;11.70;;;3.88;;
31728;SDS011;18309;43.658;1.312;2023-07-09T00:36:11;10.18;;;4.00;;
31728;SDS011;18309;43.658;1.312;2023-07-09T00:38:59;14.77;;;3.78;;
31728;SDS011;18309;43.658;1.312;2023-07-09T00:41:31;9.82;;;3.80;;
31728;SDS011;18309;43.658;1.312;2023-07-09T00:43:58;9.82;;;3.97;;
31728;SDS011;18309;43.658;1.312;2023-07-09T00:49:29;14.15;;;3.83;;
31728;SDS011;18309;43.658;1.312;2023-07-09T00:54:44;12.25;;;3.88;;
31728;SDS011;18309;43.658;1.312;2023-07-09T00:57:14;12.80;;;3.67;;
31728;SDS011;18309;43.658;1.312;2023-07-09T00:59:48;9.65;;;3.40;;
31728;SDS011;18309;43.658;1.312;2023-07-09T01:02:17;12.48;;;4.13;;
31728;SDS011;18309;43.658;1.312;2023-07-09T01:04:48;13.20;;;3.83;;
31728;SDS011;18309;43.658;1.312;2023-07-09T01:07:16;16.40;;;3.45;;
31728;SDS011;18309;43.658;1.312;2023-07-09T01:09:44;17.23;;;3.97;;
31728;SDS011;18309;43.658;1.312;2023-07-09T01:12:11;11.38;;;4.15;;
31728;SDS011;18309;43.658;1.312;2023-07-09T01:14:39;15.93;;;4.20;;
31728;SDS011;18309;43.658;1.312;2023-07-09T01:17:05;10.27;;;3.80;;
31728;SDS011;18309;43.658;1.312;2023-07-09T01:19:40;16.02;;;4.30;;
31728;SDS011;18309;43.658;1.312;2023-07-09T01:22:12;11.00;;;4.03;;
31728;SDS011;18309;43.658;1.312;2023-07-09T01:25:04;10.48;;;4.03;;
31728;SDS011;18309;43.658;1.312;2023-07-09T01:30:09;10.65;;;3.67;;
31728;SDS011;18309;43.658;1.312;2023-07-09T01:32:39;14.00;;;3.92;;
31728;SDS011;18309;43.658;1.312;2023-07-09T01:35:10;8.77;;;3.65;;
31728;SDS011;18309;43.658;1.312;2023-07-09T01:37:38;12.57;;;3.97;;
31728;SDS011;18309;43.658;1.312;2023-07-09T01:40:05;19.05;;;4.13;;
31728;SDS011;18309;43.658;1.312;2023-07-09T01:42:34;14.80;;;3.63;;
31728;SDS011;18309;43.658;1.312;2023-07-09T01:45:03;12.75;;;3.90;;
31728;SDS011;18309;43.658;1.312;2023-07-09T01:47:30;11.77;;;3.28;;
31728;SDS011;18309;43.658;1.312;2023-07-09T01:49:56;15.77;;;3.10;;
31728;SDS011;18309;43.658;1.312;2023-07-09T01:52:22;9.65;;;3.90;;
31728;SDS011;18309;43.658;1.312;2023-07-09T01:54:52;9.80;;;3.97;;
31728;SDS011;18309;43.658;1.312;2023-07-09T01:57:24;10.68;;;4.10;;
31728;SDS011;18309;43.658;1.312;2023-07-09T01:59:58;8.45;;;3.33;;
31728;SDS011;18309;43.658;1.312;2023-07-09T02:02:26;15.27;;;3.85;;
31728;SDS011;18309;43.658;1.312;2023-07-09T02:04:52;8.93;;;3.42;;
31728;SDS011;18309;43.658;1.312;2023-07-09T02:07:20;10.25;;;3.75;;
31728;SDS011;18309;43.658;1.312;2023-07-09T02:09:47;10.40;;;4.30;;
31728;SDS011;18309;43.658;1.312;2023-07-09T02:12:13;12.88;;;3.95;;
31728;SDS011;18309;43.658;1.312;2023-07-09T02:14:40;9.95;;;3.47;;
31728;SDS011;18309;43.658;1.312;2023-07-09T02:17:07;8.82;;;3.58;;
31728;SDS011;18309;43.658;1.312;2023-07-09T02:19:34;15.85;;;4.32;;
31728;SDS011;18309;43.658;1.312;2023-07-09T02:21:59;9.60;;;3.58;;
31728;SDS011;18309;43.658;1.312;2023-07-09T02:24:25;11.38;;;3.50;;
31728;SDS011;18309;43.658;1.312;2023-07-09T02:26:55;13.57;;;4.15;;
31728;SDS011;18309;43.658;1.312;2023-07-09T02:29:22;11.30;;;4.53;;
31728;SDS011;18309;43.658;1.312;2023-07-09T02:31:49;12.73;;;4.00;;
31728;SDS011;18309;43.658;1.312;2023-07-09T02:34:17;11.93;;;4.30;;
31728;SDS011;18309;43.658;1.312;2023-07-09T02:36:43;13.15;;;4.20;;
31728;SDS011;18309;43.658;1.312;2023-07-09T02:39:10;13.07;;;3.97;;
31728;SDS011;18309;43.658;1.312;2023-07-09T02:41:36;12.02;;;4.57;;
31728;SDS011;18309;43.658;1.312;2023-07-09T02:44:03;15.00;;;4.35;;
31728;SDS011;18309;43.658;1.312;2023-07-09T02:46:29;10.85;;;3.80;;
31728;SDS011;18309;43.658;1.312;2023-07-09T02:48:54;12.13;;;4.47;;
31728;SDS011;18309;43.658;1.312;2023-07-09T02:51:20;16.30;;;4.07;;
31728;SDS011;18309;43.658;1.312;2023-07-09T02:53:47;14.02;;;3.58;;
31728;SDS011;18309;43.658;1.312;2023-07-09T02:56:13;9.73;;;3.72;;
31728;SDS011;18309;43.658;1.312;2023-07-09T02:58:39;10.50;;;3.30;;
31728;SDS011;18309;43.658;1.312;2023-07-09T03:01:04;14.15;;;3.85;;
31728;SDS011;18309;43.658;1.312;2023-07-09T03:03:30;8.40;;;3.50;;
31728;SDS011;18309;43.658;1.312;2023-07-09T03:05:56;14.27;;;3.70;;
31728;SDS011;18309;43.658;1.312;2023-07-09T03:08:22;7.90;;;3.83;;
31728;SDS011;18309;43.658;1.312;2023-07-09T03:10:47;8.40;;;3.90;;
31728;SDS011;18309;43.658;1.312;2023-07-09T03:13:13;9.60;;;4.05;;
31728;SDS011;18309;43.658;1.312;2023-07-09T03:15:39;18.88;;;4.53;;
31728;SDS011;18309;43.658;1.312;2023-07-09T03:18:04;14.60;;;3.95;;
31728;SDS011;18309;43.658;1.312;2023-07-09T03:20:30;9.13;;;4.25;;
31728;SDS011;18309;43.658;1.312;2023-07-09T03:22:56;11.70;;;4.20;;
31728;SDS011;18309;43.658;1.312;2023-07-09T03:25:22;11.43;;;4.10;;
31728;SDS011;18309;43.658;1.312;2023-07-09T03:27:48;17.23;;;4.35;;
31728;SDS011;18309;43.658;1.312;2023-07-09T03:30:14;9.07;;;3.55;;
31728;SDS011;18309;43.658;1.312;2023-07-09T03:32:39;11.45;;;4.20;;
31728;SDS011;18309;43.658;1.312;2023-07-09T03:35:05;11.63;;;4.47;;
31728;SDS011;18309;43.658;1.312;2023-07-09T03:37:31;17.40;;;4.90;;
31728;SDS011;18309;43.658;1.312;2023-07-09T03:39:57;11.82;;;4.30;;
31728;SDS011;18309;43.658;1.312;2023-07-09T03:42:22;8.48;;;4.05;;
31728;SDS011;18309;43.658;1.312;2023-07-09T03:44:48;9.23;;;4.07;;
31728;SDS011;18309;43.658;1.312;2023-07-09T03:47:14;12.05;;;3.90;;
31728;SDS011;18309;43.658;1.312;2023-07-09T03:49:39;16.25;;;4.40;;
31728;SDS011;18309;43.658;1.312;2023-07-09T03:52:07;11.90;;;4.57;;
31728;SDS011;18309;43.658;1.312;2023-07-09T03:54:33;22.55;;;4.20;;
31728;SDS011;18309;43.658;1.312;2023-07-09T03:56:58;9.20;;;4.13;;
31728;SDS011;18309;43.658;1.312;2023-07-09T03:59:24;14.57;;;3.80;;
31728;SDS011;18309;43.658;1.312;2023-07-09T04:01:50;11.95;;;4.10;;
31728;SDS011;18309;43.658;1.312;2023-07-09T04:04:15;14.88;;;4.60;;
31728;SDS011;18309;43.658;1.312;2023-07-09T04:06:45;15.27;;;4.30;;
31728;SDS011;18309;43.658;1.312;2023-07-09T04:09:11;15.20;;;4.05;;
31728;SDS011;18309;43.658;1.312;2023-07-09T04:11:37;8.32;;;4.18;;
31728;SDS011;18309;43.658;1.312;2023-07-09T04:14:02;13.52;;;4.03;;
31728;SDS011;18309;43.658;1.312;2023-07-09T04:16:28;15.70;;;4.30;;
31728;SDS011;18309;43.658;1.312;2023-07-09T04:18:54;13.15;;;4.15;;
31728;SDS011;18309;43.658;1.312;2023-07-09T04:21:19;9.15;;;4.28;;
31728;SDS011;18309;43.658;1.312;2023-07-09T04:23:45;12.07;;;4.28;;
31728;SDS011;18309;43.658;1.312;2023-07-09T04:26:14;11.80;;;4.07;;
31728;SDS011;18309;43.658;1.312;2023-07-09T04:28:39;13.65;;;5.10;;
31728;SDS011;18309;43.658;1.312;2023-07-09T04:31:05;9.15;;;4.22;;
31728;SDS011;18309;43.658;1.312;2023-07-09T04:33:31;15.95;;;4.78;;
31728;SDS011;18309;43.658;1.312;2023-07-09T04:35:57;13.38;;;4.93;;
31728;SDS011;18309;43.658;1.312;2023-07-09T04:38:22;11.45;;;4.38;;
31728;SDS011;18309;43.658;1.312;2023-07-09T04:40:48;12.52;;;4.32;;
31728;SDS011;18309;43.658;1.312;2023-07-09T04:43:14;11.20;;;4.43;;
31728;SDS011;18309;43.658;1.312;2023-07-09T04:45:40;11.98;;;4.43;;
31728;SDS011;18309;43.658;1.312;2023-07-09T04:48:06;10.38;;;4.15;;
31728;SDS011;18309;43.658;1.312;2023-07-09T04:50:32;16.85;;;4.72;;
31728;SDS011;18309;43.658;1.312;2023-07-09T04:52:58;8.65;;;4.07;;
31728;SDS011;18309;43.658;1.312;2023-07-09T04:55:24;14.80;;;4.43;;
31728;SDS011;18309;43.658;1.312;2023-07-09T04:57:51;8.60;;;3.58;;
31728;SDS011;18309;43.658;1.312;2023-07-09T05:00:17;8.80;;;3.95;;
31728;SDS011;18309;43.658;1.312;2023-07-09T05:02:43;20.75;;;4.35;;
31728;SDS011;18309;43.658;1.312;2023-07-09T05:05:09;11.48;;;4.35;;
31728;SDS011;18309;43.658;1.312;2023-07-09T05:07:36;9.20;;;3.72;;
31728;SDS011;18309;43.658;1.312;2023-07-09T05:10:02;14.85;;;4.30;;
31728;SDS011;18309;43.658;1.312;2023-07-09T05:12:28;16.13;;;4.43;;
31728;SDS011;18309;43.658;1.312;2023-07-09T05:14:54;14.80;;;4.05;;
31728;SDS011;18309;43.658;1.312;2023-07-09T05:17:21;20.30;;;4.25;;
31728;SDS011;18309;43.658;1.312;2023-07-09T05:19:48;9.73;;;3.72;;
31728;SDS011;18309;43.658;1.312;2023-07-09T05:22:17;10.65;;;4.57;;
31728;SDS011;18309;43.658;1.312;2023-07-09T05:24:43;14.98;;;4.07;;
31728;SDS011;18309;43.658;1.312;2023-07-09T05:27:09;9.93;;;3.58;;
31728;SDS011;18309;43.658;1.312;2023-07-09T05:29:34;13.40;;;4.03;;
31728;SDS011;18309;43.658;1.312;2023-07-09T05:32:00;12.77;;;4.13;;
31728;SDS011;18309;43.658;1.312;2023-07-09T05:34:26;11.88;;;4.57;;
31728;SDS011;18309;43.658;1.312;2023-07-09T05:36:51;16.52;;;4.88;;
31728;SDS011;18309;43.658;1.312;2023-07-09T05:39:17;13.35;;;4.65;;
31728;SDS011;18309;43.658;1.312;2023-07-09T05:41:43;12.73;;;4.63;;
31728;SDS011;18309;43.658;1.312;2023-07-09T05:44:09;12.63;;;5.00;;
31728;SDS011;18309;43.658;1.312;2023-07-09T05:46:35;9.32;;;4.53;;
31728;SDS011;18309;43.658;1.312;2023-07-09T05:49:01;12.02;;;4.50;;
31728;SDS011;18309;43.658;1.312;2023-07-09T05:51:28;19.52;;;5.28;;
31728;SDS011;18309;43.658;1.312;2023-07-09T05:53:54;18.30;;;5.78;;
31728;SDS011;18309;43.658;1.312;2023-07-09T05:56:19;18.17;;;6.80;;
31728;SDS011;18309;43.658;1.312;2023-07-09T05:58:45;19.77;;;8.68;;
31728;SDS011;18309;43.658;1.312;2023-07-09T06:01:11;21.25;;;7.97;;
31728;SDS011;18309;43.658;1.312;2023-07-09T06:03:37;23.08;;;9.30;;
31728;SDS011;18309;43.658;1.312;2023-07-09T06:06:03;17.17;;;9.82;;
31728;SDS011;18309;43.658;1.312;2023-07-09T06:08:28;22.13;;;10.63;;
31728;SDS011;18309;43.658;1.312;2023-07-09T06:10:56;17.23;;;10.10;;
31728;SDS011;18309;43.658;1.312;2023-07-09T06:13:23;24.95;;;11.85;;
31728;SDS011;18309;43.658;1.312;2023-07-09T06:15:50;25.80;;;10.73;;
31728;SDS011;18309;43.658;1.312;2023-07-09T06:18:17;25.63;;;10.25;;
31728;SDS011;18309;43.658;1.312;2023-07-09T06:20:53;20.35;;;10.90;;
31728;SDS011;18309;43.658;1.312;2023-07-09T06:23:20;25.77;;;13.63;;
31728;SDS011;18309;43.658;1.312;2023-07-09T06:25:46;22.13;;;11.88;;
31728;SDS011;18309;43.658;1.312;2023-07-09T06:28:16;18.15;;;10.88;;
31728;SDS011;18309;43.658;1.312;2023-07-09T06:30:43;19.83;;;12.57;;
31728;SDS011;18309;43.658;1.312;2023-07-09T06:33:09;21.60;;;12.55;;
31728;SDS011;18309;43.658;1.312;2023-07-09T06:35:36;24.45;;;12.80;;
31728;SDS011;18309;43.658;1.312;2023-07-09T06:38:01;28.42;;;12.90;;
31728;SDS011;18309;43.658;1.312;2023-07-09T06:40:28;21.25;;;11.70;;
31728;SDS011;18309;43.658;1.312;2023-07-09T06:42:54;30.05;;;12.45;;
31728;SDS011;18309;43.658;1.312;2023-07-09T06:45:19;19.45;;;12.35;;
31728;SDS011;18309;43.658;1.312;2023-07-09T06:47:46;22.52;;;12.00;;
31728;SDS011;18309;43.658;1.312;2023-07-09T06:50:14;23.00;;;12.23;;
31728;SDS011;18309;43.658;1.312;2023-07-09T06:52:39;26.60;;;13.57;;
31728;SDS011;18309;43.658;1.312;2023-07-09T06:55:05;24.10;;;13.50;;
31728;SDS011;18309;43.658;1.312;2023-07-09T06:57:32;20.88;;;12.57;;
31728;SDS011;18309;43.658;1.312;2023-07-09T06:59:58;22.85;;;12.68;;
31728;SDS011;18309;43.658;1.312;2023-07-09T07:02:23;25.45;;;13.60;;
31728;SDS011;18309;43.658;1.312;2023-07-09T07:04:49;24.08;;;13.95;;
31728;SDS011;18309;43.658;1.312;2023-07-09T07:07:15;28.75;;;13.73;;
31728;SDS011;18309;43.658;1.312;2023-07-09T07:09:40;25.63;;;13.75;;
31728;SDS011;18309;43.658;1.312;2023-07-09T07:12:06;28.05;;;14.48;;
31728;SDS011;18309;43.658;1.312;2023-07-09T07:14:32;22.92;;;13.13;;
31728;SDS011;18309;43.658;1.312;2023-07-09T07:16:58;21.65;;;13.10;;
31728;SDS011;18309;43.658;1.312;2023-07-09T07:19:24;20.50;;;12.63;;
31728;SDS011;18309;43.658;1.312;2023-07-09T07:21:49;19.33;;;12.68;;
31728;SDS011;18309;43.658;1.312;2023-07-09T07:24:15;19.70;;;13.55;;
31728;SDS011;18309;43.658;1.312;2023-07-09T07:26:40;18.90;;;13.18;;
31728;SDS011;18309;43.658;1.312;2023-07-09T07:29:06;24.60;;;13.35;;
31728;SDS011;18309;43.658;1.312;2023-07-09T07:31:32;27.50;;;13.68;;
31728;SDS011;18309;43.658;1.312;2023-07-09T07:33:57;25.85;;;13.68;;
31728;SDS011;18309;43.658;1.312;2023-07-09T07:36:23;20.70;;;13.23;;
31728;SDS011;18309;43.658;1.312;2023-07-09T07:38:49;26.92;;;12.95;;
31728;SDS011;18309;43.658;1.312;2023-07-09T07:41:14;24.80;;;13.77;;
31728;SDS011;18309;43.658;1.312;2023-07-09T07:43:40;24.20;;;14.18;;
31728;SDS011;18309;43.658;1.312;2023-07-09T07:46:06;22.92;;;13.93;;
31728;SDS011;18309;43.658;1.312;2023-07-09T07:48:32;26.40;;;13.85;;
31728;SDS011;18309;43.658;1.312;2023-07-09T07:50:59;19.73;;;13.30;;
31728;SDS011;18309;43.658;1.312;2023-07-09T07:53:29;20.30;;;13.43;;
31728;SDS011;18309;43.658;1.312;2023-07-09T07:55:56;21.38;;;13.93;;
31728;SDS011;18309;43.658;1.312;2023-07-09T07:58:23;23.20;;;12.85;;
31728;SDS011;18309;43.658;1.312;2023-07-09T08:00:48;20.15;;;12.93;;
31728;SDS011;18309;43.658;1.312;2023-07-09T08:03:14;18.08;;;11.75;;
31728;SDS011;18309;43.658;1.312;2023-07-09T08:05:40;18.00;;;12.23;;
31728;SDS011;18309;43.658;1.312;2023-07-09T08:08:06;20.67;;;13.02;;
31728;SDS011;18309;43.658;1.312;2023-07-09T08:10:31;21.13;;;13.07;;
31728;SDS011;18309;43.658;1.312;2023-07-09T08:12:57;21.85;;;13.38;;
31728;SDS011;18309;43.658;1.312;2023-07-09T08:15:23;20.23;;;13.23;;
31728;SDS011;18309;43.658;1.312;2023-07-09T08:17:49;19.20;;;13.23;;
31728;SDS011;18309;43.658;1.312;2023-07-09T08:20:15;18.38;;;12.90;;
31728;SDS011;18309;43.658;1.312;2023-07-09T08:22:41;19.75;;;12.63;;
31728;SDS011;18309;43.658;1.312;2023-07-09T08:25:08;22.88;;;13.25;;
31728;SDS011;18309;43.658;1.312;2023-07-09T08:27:33;24.83;;;12.63;;
31728;SDS011;18309;43.658;1.312;2023-07-09T08:29:59;20.48;;;13.35;;
31728;SDS011;18309;43.658;1.312;2023-07-09T08:32:25;21.98;;;13.45;;
31728;SDS011;18309;43.658;1.312;2023-07-09T08:34:51;24.50;;;12.15;;
31728;SDS011;18309;43.658;1.312;2023-07-09T08:37:16;23.10;;;12.55;;
31728;SDS011;18309;43.658;1.312;2023-07-09T08:39:42;24.50;;;12.32;;
31728;SDS011;18309;43.658;1.312;2023-07-09T08:42:09;18.38;;;12.38;;
31728;SDS011;18309;43.658;1.312;2023-07-09T08:47:29;22.77;;;12.55;;
31728;SDS011;18309;43.658;1.312;2023-07-09T08:50:05;20.73;;;13.05;;
31728;SDS011;18309;43.658;1.312;2023-07-09T08:52:40;18.90;;;12.80;;
31728;SDS011;18309;43.658;1.312;2023-07-09T08:55:09;19.77;;;13.02;;
31728;SDS011;18309;43.658;1.312;2023-07-09T08:57:37;23.88;;;12.68;;
31728;SDS011;18309;43.658;1.312;2023-07-09T09:00:16;17.90;;;12.52;;
31728;SDS011;18309;43.658;1.312;2023-07-09T09:03:04;18.98;;;11.48;;
31728;SDS011;18309;43.658;1.312;2023-07-09T09:05:37;25.50;;;12.93;;
31728;SDS011;18309;43.658;1.312;2023-07-09T09:08:13;22.20;;;13.32;;
31728;SDS011;18309;43.658;1.312;2023-07-09T09:10:47;25.20;;;12.38;;
31728;SDS011;18309;43.658;1.312;2023-07-09T09:13:19;18.92;;;12.60;;
31728;SDS011;18309;43.658;1.312;2023-07-09T09:15:48;24.73;;;12.95;;
31728;SDS011;18309;43.658;1.312;2023-07-09T09:18:22;20.30;;;12.88;;
31728;SDS011;18309;43.658;1.312;2023-07-09T09:23:48;25.02;;;12.93;;
31728;SDS011;18309;43.658;1.312;2023-07-09T09:26:28;20.70;;;13.20;;
31728;SDS011;18309;43.658;1.312;2023-07-09T09:28:57;19.65;;;12.60;;
31728;SDS011;18309;43.658;1.312;2023-07-09T09:31:24;19.23;;;12.98;;
31728;SDS011;18309;43.658;1.312;2023-07-09T09:33:54;19.02;;;12.68;;
31728;SDS011;18309;43.658;1.312;2023-07-09T09:36:24;22.65;;;13.90;;
31728;SDS011;18309;43.658;1.312;2023-07-09T09:38:52;22.20;;;13.15;;
31728;SDS011;18309;43.658;1.312;2023-07-09T09:41:19;17.90;;;12.93;;
31728;SDS011;18309;43.658;1.312;2023-07-09T09:43:51;24.98;;;12.52;;
31728;SDS011;18309;43.658;1.312;2023-07-09T09:46:21;20.63;;;12.82;;
31728;SDS011;18309;43.658;1.312;2023-07-09T09:48:55;19.90;;;13.02;;
31728;SDS011;18309;43.658;1.312;2023-07-09T09:51:25;18.30;;;12.95;;
31728;SDS011;18309;43.658;1.312;2023-07-09T09:53:52;21.50;;;13.98;;
31728;SDS011;18309;43.658;1.312;2023-07-09T09:56:30;20.63;;;13.05;;
31728;SDS011;18309;43.658;1.312;2023-07-09T09:59:00;20.00;;;12.73;;
31728;SDS011;18309;43.658;1.312;2023-07-09T10:01:31;19.55;;;12.00;;
31728;SDS011;18309;43.658;1.312;2023-07-09T10:04:00;21.48;;;14.32;;
31728;SDS011;18309;43.658;1.312;2023-07-09T10:17:36;22.05;;;12.95;;
31728;SDS011;18309;43.658;1.312;2023-07-09T10:25:35;19.80;;;12.95;;
31728;SDS011;18309;43.658;1.312;2023-07-09T10:31:03;31.02;;;13.70;;
31728;SDS011;18309;43.658;1.312;2023-07-09T10:36:46;25.55;;;13.13;;
31728;SDS011;18309;43.658;1.312;2023-07-09T10:39:34;18.52;;;13.20;;
31728;SDS011;18309;43.658;1.312;2023-07-09T10:42:08;23.00;;;12.98;;
31728;SDS011;18309;43.658;1.312;2023-07-09T10:44:41;28.10;;;13.80;;
31728;SDS011;18309;43.658;1.312;2023-07-09T10:47:19;17.58;;;12.65;;
31728;SDS011;18309;43.658;1.312;2023-07-09T10:49:53;22.30;;;11.88;;
31728;SDS011;18309;43.658;1.312;2023-07-09T10:52:23;20.77;;;11.23;;
31728;SDS011;18309;43.658;1.312;2023-07-09T10:57:54;21.17;;;11.63;;
31728;SDS011;18309;43.658;1.312;2023-07-09T11:00:29;16.48;;;12.18;;
31728;SDS011;18309;43.658;1.312;2023-07-09T11:03:16;19.45;;;11.85;;
31728;SDS011;18309;43.658;1.312;2023-07-09T11:05:49;20.70;;;10.98;;
31728;SDS011;18309;43.658;1.312;2023-07-09T11:08:20;17.70;;;11.50;;
31728;SDS011;18309;43.658;1.312;2023-07-09T11:10:57;18.13;;;10.32;;
31728;SDS011;18309;43.658;1.312;2023-07-09T11:16:08;15.52;;;9.45;;
31728;SDS011;18309;43.658;1.312;2023-07-09T11:18:40;18.90;;;10.60;;
31728;SDS011;18309;43.658;1.312;2023-07-09T11:21:07;15.18;;;10.00;;
31728;SDS011;18309;43.658;1.312;2023-07-09T11:23:47;15.57;;;9.77;;
31728;SDS011;18309;43.658;1.312;2023-07-09T11:29:35;15.40;;;9.05;;
31728;SDS011;18309;43.658;1.312;2023-07-09T11:31:43;17.48;;;10.15;;
31728;SDS011;18309;43.658;1.312;2023-07-09T11:36:48;14.05;;;8.80;;
31728;SDS011;18309;43.658;1.312;2023-07-09T11:39:21;18.52;;;10.13;;
31728;SDS011;18309;43.658;1.312;2023-07-09T11:41:47;16.30;;;9.88;;
31728;SDS011;18309;43.658;1.312;2023-07-09T11:49:56;14.70;;;9.23;;
31728;SDS011;18309;43.658;1.312;2023-07-09T11:52:30;15.88;;;9.00;;
31728;SDS011;18309;43.658;1.312;2023-07-09T11:57:55;16.73;;;9.60;;
31728;SDS011;18309;43.658;1.312;2023-07-09T12:00:22;15.05;;;9.27;;
31728;SDS011;18309;43.658;1.312;2023-07-09T12:02:50;16.23;;;8.93;;
31728;SDS011;18309;43.658;1.312;2023-07-09T12:05:21;15.57;;;8.70;;
31728;SDS011;18309;43.658;1.312;2023-07-09T12:07:51;17.15;;;9.77;;
31728;SDS011;18309;43.658;1.312;2023-07-09T12:10:21;17.58;;;8.75;;
31728;SDS011;18309;43.658;1.312;2023-07-09T12:12:53;19.65;;;8.48;;
31728;SDS011;18309;43.658;1.312;2023-07-09T12:15:24;17.20;;;9.02;;
31728;SDS011;18309;43.658;1.312;2023-07-09T12:18:01;17.55;;;8.82;;
31728;SDS011;18309;43.658;1.312;2023-07-09T12:20:34;20.73;;;10.30;;
31728;SDS011;18309;43.658;1.312;2023-07-09T12:25:50;15.20;;;9.07;;
31728;SDS011;18309;43.658;1.312;2023-07-09T12:28:17;13.95;;;8.18;;
31728;SDS011;18309;43.658;1.312;2023-07-09T12:30:47;15.20;;;8.10;;
31728;SDS011;18309;43.658;1.312;2023-07-09T12:33:21;13.05;;;7.90;;
31728;SDS011;18309;43.658;1.312;2023-07-09T12:35:50;15.90;;;8.70;;
31728;SDS011;18309;43.658;1.312;2023-07-09T12:38:21;19.10;;;7.45;;
31728;SDS011;18309;43.658;1.312;2023-07-09T12:40:48;17.75;;;7.65;;
31728;SDS011;18309;43.658;1.312;2023-07-09T12:43:34;14.57;;;7.68;;
31728;SDS011;18309;43.658;1.312;2023-07-09T12:45:59;16.25;;;8.00;;
31728;SDS011;18309;43.658;1.312;2023-07-09T12:48:27;14.80;;;7.57;;
31728;SDS011;18309;43.658;1.312;2023-07-09T12:50:58;14.20;;;7.30;;
31728;SDS011;18309;43.658;1.312;2023-07-09T12:55:51;12.73;;;8.10;;
31728;SDS011;18309;43.658;1.312;2023-07-09T12:58:22;16.48;;;8.13;;
31728;SDS011;18309;43.658;1.312;2023-07-09T13:00:50;10.43;;;7.03;;
31728;SDS011;18309;43.658;1.312;2023-07-09T13:03:21;12.50;;;7.65;;
31728;SDS011;18309;43.658;1.312;2023-07-09T13:05:51;11.93;;;7.45;;
31728;SDS011;18309;43.658;1.312;2023-07-09T13:08:47;13.13;;;7.13;;
31728;SDS011;18309;43.658;1.312;2023-07-09T13:11:19;12.45;;;7.63;;
31728;SDS011;18309;43.658;1.312;2023-07-09T13:13:58;19.00;;;7.15;;
31728;SDS011;18309;43.658;1.312;2023-07-09T13:16:27;16.23;;;7.45;;
31728;SDS011;18309;43.658;1.312;2023-07-09T13:18:52;11.50;;;7.03;;
31728;SDS011;18309;43.658;1.312;2023-07-09T13:21:19;14.98;;;7.03;;
31728;SDS011;18309;43.658;1.312;2023-07-09T13:23:46;15.90;;;7.10;;
31728;SDS011;18309;43.658;1.312;2023-07-09T13:26:12;11.15;;;5.95;;
31728;SDS011;18309;43.658;1.312;2023-07-09T13:28:39;14.32;;;6.97;;
31728;SDS011;18309;43.658;1.312;2023-07-09T13:31:09;16.20;;;6.78;;
31728;SDS011;18309;43.658;1.312;2023-07-09T13:33:44;16.80;;;6.60;;
31728;SDS011;18309;43.658;1.312;2023-07-09T13:36:17;12.82;;;6.07;;
31728;SDS011;18309;43.658;1.312;2023-07-09T13:38:43;18.80;;;6.70;;
31728;SDS011;18309;43.658;1.312;2023-07-09T13:41:13;20.15;;;7.55;;
31728;SDS011;18309;43.658;1.312;2023-07-09T13:43:42;21.67;;;6.95;;
31728;SDS011;18309;43.658;1.312;2023-07-09T13:46:10;16.05;;;7.38;;
31728;SDS011;18309;43.658;1.312;2023-07-09T13:48:36;13.25;;;6.82;;
31728;SDS011;18309;43.658;1.312;2023-07-09T13:51:13;10.57;;;6.57;;
31728;SDS011;18309;43.658;1.312;2023-07-09T13:53:39;13.35;;;7.10;;
31728;SDS011;18309;43.658;1.312;2023-07-09T13:56:05;11.25;;;6.20;;
31728;SDS011;18309;43.658;1.312;2023-07-09T13:58:30;13.20;;;7.13;;
31728;SDS011;18309;43.658;1.312;2023-07-09T14:00:57;15.45;;;7.15;;
31728;SDS011;18309;43.658;1.312;2023-07-09T14:03:29;13.43;;;6.32;;
31728;SDS011;18309;43.658;1.312;2023-07-09T14:05:57;20.23;;;7.07;;
31728;SDS011;18309;43.658;1.312;2023-07-09T14:08:23;13.93;;;6.13;;
31728;SDS011;18309;43.658;1.312;2023-07-09T14:10:49;9.35;;;6.07;;
31728;SDS011;18309;43.658;1.312;2023-07-09T14:13:19;14.77;;;6.55;;
31728;SDS011;18309;43.658;1.312;2023-07-09T14:15:48;11.50;;;6.18;;
31728;SDS011;18309;43.658;1.312;2023-07-09T14:18:21;17.40;;;6.93;;
31728;SDS011;18309;43.658;1.312;2023-07-09T14:20:48;17.92;;;6.25;;
31728;SDS011;18309;43.658;1.312;2023-07-09T14:23:16;14.70;;;6.28;;
31728;SDS011;18309;43.658;1.312;2023-07-09T14:25:43;12.52;;;6.25;;
31728;SDS011;18309;43.658;1.312;2023-07-09T14:28:13;10.57;;;5.45;;
31728;SDS011;18309;43.658;1.312;2023-07-09T14:30:44;15.52;;;6.50;;
31728;SDS011;18309;43.658;1.312;2023-07-09T14:33:17;11.85;;;6.72;;
31728;SDS011;18309;43.658;1.312;2023-07-09T14:35:44;13.63;;;6.35;;
31728;SDS011;18309;43.658;1.312;2023-07-09T14:40:47;13.02;;;6.40;;
31728;SDS011;18309;43.658;1.312;2023-07-09T14:43:14;14.93;;;6.68;;
31728;SDS011;18309;43.658;1.312;2023-07-09T14:45:40;15.63;;;6.70;;
31728;SDS011;18309;43.658;1.312;2023-07-09T14:48:13;8.32;;;5.95;;
31728;SDS011;18309;43.658;1.312;2023-07-09T14:50:43;15.13;;;6.07;;
31728;SDS011;18309;43.658;1.312;2023-07-09T14:53:18;10.45;;;5.95;;
31728;SDS011;18309;43.658;1.312;2023-07-09T14:55:48;15.23;;;6.05;;
31728;SDS011;18309;43.658;1.312;2023-07-09T14:58:18;14.38;;;6.07;;
31728;SDS011;18309;43.658;1.312;2023-07-09T15:00:45;12.48;;;6.20;;
31728;SDS011;18309;43.658;1.312;2023-07-09T15:03:22;12.27;;;6.70;;
31728;SDS011;18309;43.658;1.312;2023-07-09T15:05:50;13.73;;;5.82;;
31728;SDS011;18309;43.658;1.312;2023-07-09T15:08:20;19.20;;;6.88;;
31728;SDS011;18309;43.658;1.312;2023-07-09T15:10:47;14.40;;;5.97;;
31728;SDS011;18309;43.658;1.312;2023-07-09T15:13:18;13.07;;;6.45;;
31728;SDS011;18309;43.658;1.312;2023-07-09T15:15:56;10.40;;;6.18;;
31728;SDS011;18309;43.658;1.312;2023-07-09T15:18:22;11.85;;;6.50;;
31728;SDS011;18309;43.658;1.312;2023-07-09T15:20:49;15.48;;;6.65;;
31728;SDS011;18309;43.658;1.312;2023-07-09T15:23:17;16.50;;;5.70;;
31728;SDS011;18309;43.658;1.312;2023-07-09T15:25:43;12.23;;;5.93;;
31728;SDS011;18309;43.658;1.312;2023-07-09T15:28:09;11.55;;;6.10;;
31728;SDS011;18309;43.658;1.312;2023-07-09T15:30:36;12.23;;;6.35;;
31728;SDS011;18309;43.658;1.312;2023-07-09T15:33:02;16.35;;;6.30;;
31728;SDS011;18309;43.658;1.312;2023-07-09T15:35:31;10.25;;;5.80;;
31728;SDS011;18309;43.658;1.312;2023-07-09T15:37:58;12.52;;;5.80;;
31728;SDS011;18309;43.658;1.312;2023-07-09T15:40:25;10.30;;;6.13;;
31728;SDS011;18309;43.658;1.312;2023-07-09T15:42:56;12.88;;;5.53;;